Time;durP1;ratioP1;P1;durP2;ratioP2;P2;SDS_P1;SDS_P2;PMS_P1;PMS_P2;Temp;Humidity;BMP_temperature;BMP_pressure;BME280_temperature;BME280_humidity;BME280_pressure;Samples;Min_cycle;Max_cycle;Signal;HPM_P1;HPM_P2
2022/04/02 00:00:45;;;;;;;7.45;2.58;;;2.70;64.90;;;;;;4992468;28;20194;-69
2022/04/02 00:03:11;;;;;;;6.90;2.80;;;2.70;65.60;;;;;;4992545;28;20037;-69
2022/04/02 00:05:36;;;;;;;5.00;2.50;;;2.60;65.60;;;;;;5006803;28;20044;-69
2022/04/02 00:08:02;;;;;;;4.75;2.55;;;2.60;65.50;;;;;;5007497;28;20034;-69
2022/04/02 00:10:27;;;;;;;5.97;2.40;;;2.60;65.80;;;;;;5011875;28;20551;-69
2022/04/02 00:12:55;;;;;;;6.00;2.97;;;2.60;66.50;;;;;;5012209;28;20125;-69
2022/04/02 00:15:21;;;;;;;5.53;2.22;;;2.60;66.00;;;;;;5011475;28;20030;-69
2022/04/02 00:17:47;;;;;;;7.75;3.05;;;2.50;66.80;;;;;;5011969;28;20703;-69
2022/04/02 00:20:12;;;;;;;5.18;2.45;;;2.50;66.60;;;;;;5013467;28;20073;-69
2022/04/02 00:22:38;;;;;;;6.90;2.50;;;2.50;67.20;;;;;;5006671;28;20505;-69
2022/04/02 00:25:03;;;;;;;4.53;2.47;;;2.40;67.30;;;;;;5011855;28;20481;-69
2022/04/02 00:27:29;;;;;;;4.70;2.35;;;2.50;67.50;;;;;;5007664;28;20030;-69
2022/04/02 00:29:54;;;;;;;5.57;2.38;;;2.50;67.00;;;;;;4993121;28;20496;-69
2022/04/02 00:32:20;;;;;;;7.32;3.53;;;2.60;66.50;;;;;;4998461;28;20033;-70
2022/04/02 00:34:46;;;;;;;5.90;2.08;;;2.50;67.30;;;;;;4994011;28;20092;-70
2022/04/02 00:37:11;;;;;;;4.15;2.38;;;2.50;67.20;;;;;;4999910;28;20041;-70
2022/04/02 00:39:37;;;;;;;5.80;2.70;;;2.50;67.50;;;;;;5011991;28;20552;-70
2022/04/02 00:42:02;;;;;;;4.50;2.70;;;2.50;67.50;;;;;;5006371;28;20454;-70
2022/04/02 00:44:28;;;;;;;4.95;2.78;;;2.50;67.40;;;;;;4993063;28;20030;-70
2022/04/02 00:46:54;;;;;;;4.60;2.53;;;2.50;67.60;;;;;;5005594;28;20105;-70
2022/04/02 00:49:20;;;;;;;6.18;3.47;;;2.40;68.30;;;;;;4995437;28;20042;-70
2022/04/02 00:51:49;;;;;;;4.22;2.40;;;2.40;68.30;;;;;;4995658;28;20060;-69
2022/04/02 00:54:16;;;;;;;5.13;3.13;;;2.40;68.40;;;;;;5003404;28;20045;-70
2022/04/02 00:56:43;;;;;;;5.97;2.85;;;2.40;68.70;;;;;;4995013;28;20026;-70
2022/04/02 00:59:09;;;;;;;5.63;2.88;;;2.40;68.50;;;;;;5011969;28;20080;-69
2022/04/02 01:01:36;;;;;;;4.95;2.72;;;2.40;69.40;;;;;;5010576;28;20482;-69
2022/04/02 01:04:02;;;;;;;5.57;3.38;;;2.40;68.70;;;;;;5005961;28;20045;-69
2022/04/02 01:06:30;;;;;;;6.38;2.60;;;2.40;69.60;;;;;;5010862;28;20053;-71
2022/04/02 01:08:56;;;;;;;6.10;3.03;;;2.40;69.70;;;;;;5010542;28;20564;-70
2022/04/02 01:11:22;;;;;;;5.10;2.72;;;2.40;69.30;;;;;;5011069;28;20503;-69
2022/04/02 01:13:48;;;;;;;6.93;3.20;;;2.30;70.50;;;;;;5002275;28;20033;-69
2022/04/02 01:16:13;;;;;;;5.45;2.50;;;2.30;70.00;;;;;;5010734;28;20363;-69
2022/04/02 01:18:39;;;;;;;4.25;2.60;;;2.30;69.80;;;;;;4993069;28;20486;-70
2022/04/02 01:21:04;;;;;;;6.95;3.03;;;2.30;70.50;;;;;;4997713;28;20044;-69
2022/04/02 01:23:30;;;;;;;4.68;2.50;;;2.30;70.60;;;;;;5002832;28;20033;-70
2022/04/02 01:25:57;;;;;;;4.90;3.20;;;2.30;70.40;;;;;;5008690;28;20537;-68
2022/04/02 01:28:23;;;;;;;6.35;2.80;;;2.30;71.30;;;;;;4998449;28;20417;-69
2022/04/02 01:30:49;;;;;;;5.75;2.80;;;2.30;71.40;;;;;;4994295;28;20030;-69
2022/04/02 01:33:14;;;;;;;7.68;2.60;;;2.30;71.60;;;;;;5011887;28;20029;-70
2022/04/02 01:35:40;;;;;;;4.20;2.38;;;2.20;71.70;;;;;;5009992;28;20129;-70
2022/04/02 01:38:06;;;;;;;4.57;2.97;;;2.30;71.80;;;;;;4997668;28;20026;-69
2022/04/02 01:40:32;;;;;;;4.85;3.08;;;2.20;72.20;;;;;;4992179;28;20023;-69
2022/04/02 01:42:57;;;;;;;5.85;2.80;;;2.20;72.30;;;;;;4991453;28;20038;-69
2022/04/02 01:45:22;;;;;;;4.85;2.83;;;2.20;72.30;;;;;;4992046;28;20057;-69
2022/04/02 01:47:50;;;;;;;6.18;3.20;;;2.20;72.40;;;;;;5007651;28;20091;-69
2022/04/02 01:50:16;;;;;;;7.30;2.63;;;2.20;72.90;;;;;;5008386;28;20045;-69
2022/04/02 01:52:41;;;;;;;4.93;2.60;;;2.20;72.60;;;;;;4991840;28;20065;-69
2022/04/02 01:55:07;;;;;;;4.32;2.58;;;2.20;72.60;;;;;;4991886;28;20505;-69
2022/04/02 01:57:33;;;;;;;8.30;2.33;;;2.20;72.50;;;;;;4992168;28;20042;-69
2022/04/02 01:59:59;;;;;;;4.93;3.25;;;2.20;72.40;;;;;;4991911;28;20022;-69
2022/04/02 02:02:26;;;;;;;6.07;2.50;;;2.30;73.00;;;;;;4992019;28;20045;-69
2022/04/02 02:04:51;;;;;;;4.75;2.60;;;2.30;73.40;;;;;;4992029;28;20083;-69
2022/04/02 02:07:19;;;;;;;6.60;2.53;;;2.30;73.70;;;;;;5003186;28;20188;-69
2022/04/02 02:09:44;;;;;;;4.82;2.45;;;2.30;73.40;;;;;;5011554;28;20420;-69
2022/04/02 02:12:11;;;;;;;4.82;2.45;;;2.30;72.90;;;;;;5007588;28;20050;-69
2022/04/02 02:14:36;;;;;;;4.13;2.30;;;2.30;73.60;;;;;;5011395;28;20022;-68
2022/04/02 02:17:02;;;;;;;5.55;2.53;;;2.30;72.90;;;;;;5010014;28;20083;-69
2022/04/02 02:19:27;;;;;;;8.20;2.55;;;2.30;73.90;;;;;;5010048;28;20065;-69
2022/04/02 02:21:53;;;;;;;4.78;2.50;;;2.40;73.50;;;;;;4997682;28;20367;-69
2022/04/02 02:24:20;;;;;;;5.72;3.03;;;2.30;74.40;;;;;;4991453;28;20030;-68
2022/04/02 02:26:45;;;;;;;5.43;2.67;;;2.30;74.40;;;;;;4993506;28;20038;-69
2022/04/02 02:29:11;;;;;;;4.40;2.20;;;2.30;74.20;;;;;;4991617;28;20022;-69
2022/04/02 02:31:36;;;;;;;5.47;2.75;;;2.30;75.20;;;;;;5000247;28;20069;-69
2022/04/02 02:36:48;;;;;;;3.63;2.35;;;2.30;75.60;;;;;;5006760;28;20026;-69
2022/04/02 02:39:14;;;;;;;5.07;2.42;;;2.30;75.30;;;;;;5006502;28;20034;-69
2022/04/02 02:41:39;;;;;;;5.97;2.47;;;2.30;75.60;;;;;;5005875;28;20034;-69
2022/04/02 02:44:05;;;;;;;5.90;2.60;;;2.30;75.80;;;;;;4993296;28;20470;-69
2022/04/02 02:46:32;;;;;;;7.15;3.15;;;2.30;76.20;;;;;;5004911;28;20045;-69
2022/04/02 02:48:57;;;;;;;6.03;2.83;;;2.30;76.90;;;;;;5014615;28;20026;-69
2022/04/02 02:51:23;;;;;;;6.72;2.85;;;2.30;76.80;;;;;;5006176;28;20042;-69
2022/04/02 02:53:48;;;;;;;9.57;2.35;;;2.30;77.00;;;;;;4994504;28;20409;-69
2022/04/02 02:56:14;;;;;;;5.43;2.55;;;2.30;77.10;;;;;;5005738;28;20513;-69
2022/04/02 02:58:39;;;;;;;7.43;2.70;;;2.20;76.80;;;;;;4995297;28;20110;-68
2022/04/02 03:01:05;;;;;;;7.20;2.78;;;2.30;77.40;;;;;;4999782;28;20594;-69
2022/04/02 03:03:31;;;;;;;5.07;2.50;;;2.30;77.80;;;;;;5013166;28;20363;-69
2022/04/02 03:05:57;;;;;;;4.47;2.15;;;2.30;77.80;;;;;;5012617;28;20489;-69
2022/04/02 03:08:22;;;;;;;7.68;2.50;;;2.30;77.50;;;;;;5014191;28;20095;-69
2022/04/02 03:10:48;;;;;;;5.10;2.75;;;2.30;77.10;;;;;;5012138;28;20087;-69
2022/04/02 03:13:14;;;;;;;3.10;2.28;;;2.40;77.10;;;;;;5014451;28;20526;-69
2022/04/02 03:15:40;;;;;;;6.82;2.20;;;2.40;78.10;;;;;;5013638;28;20031;-70
2022/04/02 03:18:08;;;;;;;5.38;2.30;;;2.40;78.00;;;;;;5014640;28;20045;-69
2022/04/02 03:20:34;;;;;;;5.10;2.10;;;2.40;78.20;;;;;;5004289;28;20026;-69
2022/04/02 03:23:00;;;;;;;8.07;2.28;;;2.40;77.40;;;;;;5012893;28;20057;-69
2022/04/02 03:25:25;;;;;;;5.25;2.30;;;2.40;77.70;;;;;;5012785;28;20105;-70
2022/04/02 03:27:51;;;;;;;3.88;2.20;;;2.40;77.80;;;;;;5011278;28;20037;-69
2022/04/02 03:30:20;;;;;;;3.40;2.03;;;2.40;78.20;;;;;;5006570;28;20054;-70
2022/04/02 03:32:46;;;;;;;6.72;2.58;;;2.40;78.60;;;;;;5012963;28;20053;-70
2022/04/02 03:35:14;;;;;;;5.35;2.22;;;2.40;78.70;;;;;;5013966;28;20033;-69
2022/04/02 03:37:41;;;;;;;5.22;2.20;;;2.40;79.50;;;;;;4999214;28;20038;-69
2022/04/02 03:40:09;;;;;;;4.30;2.13;;;2.30;78.80;;;;;;4994540;28;20084;-70
2022/04/02 03:42:37;;;;;;;6.07;2.42;;;2.40;79.70;;;;;;5011209;28;20347;-68
2022/04/02 03:45:05;;;;;;;3.83;2.05;;;2.30;78.70;;;;;;4997993;28;20523;-69
2022/04/02 03:47:31;;;;;;;4.30;2.78;;;2.30;79.20;;;;;;5011838;28;20565;-69
2022/04/02 03:49:57;;;;;;;5.93;2.08;;;2.40;79.40;;;;;;4994983;28;20034;-69
2022/04/02 03:52:23;;;;;;;5.28;2.42;;;2.40;79.30;;;;;;5009310;28;20354;-69
2022/04/02 03:54:48;;;;;;;7.63;2.83;;;2.30;79.80;;;;;;5013850;28;20073;-70
2022/04/02 03:57:15;;;;;;;6.20;2.90;;;2.30;80.20;;;;;;5012355;28;20454;-69
2022/04/02 03:59:42;;;;;;;7.68;2.30;;;2.30;80.20;;;;;;4997512;28;20026;-69
2022/04/02 04:02:08;;;;;;;5.72;2.28;;;2.30;80.30;;;;;;5008855;28;20030;-69
2022/04/02 04:04:35;;;;;;;4.13;2.70;;;2.30;79.80;;;;;;5013005;28;20034;-69
2022/04/02 04:07:01;;;;;;;4.22;2.53;;;2.30;80.10;;;;;;5012241;28;20054;-70
2022/04/02 04:09:27;;;;;;;4.90;2.28;;;2.30;80.20;;;;;;5013013;28;20493;-69
2022/04/02 04:11:54;;;;;;;8.07;2.63;;;2.40;79.90;;;;;;5012528;28;20085;-70
2022/04/02 04:14:20;;;;;;;6.32;2.58;;;2.40;79.70;;;;;;5013342;28;20057;-69
2022/04/02 04:16:46;;;;;;;6.53;2.50;;;2.40;79.60;;;;;;5011853;28;20030;-69
2022/04/02 04:19:11;;;;;;;4.82;2.70;;;2.40;79.40;;;;;;5012839;28;20037;-70
2022/04/02 04:21:37;;;;;;;7.13;2.60;;;2.50;79.60;;;;;;5001869;28;20061;-69
2022/04/02 04:24:04;;;;;;;5.03;2.03;;;2.40;79.80;;;;;;4993299;28;20103;-69
2022/04/02 04:26:30;;;;;;;8.25;3.15;;;2.50;79.80;;;;;;5001125;28;20044;-69
2022/04/02 04:28:55;;;;;;;3.90;2.03;;;2.50;79.20;;;;;;5012304;28;20057;-69
2022/04/02 04:31:22;;;;;;;4.82;2.72;;;2.50;79.10;;;;;;5006805;28;20108;-70
2022/04/02 04:33:48;;;;;;;6.13;3.00;;;2.50;79.30;;;;;;4993731;28;20026;-69
2022/04/02 04:36:15;;;;;;;4.03;2.22;;;2.60;79.30;;;;;;4997867;28;20026;-70
2022/04/02 04:38:41;;;;;;;7.60;2.70;;;2.60;78.90;;;;;;5013352;28;20029;-70
2022/04/02 04:41:07;;;;;;;3.72;2.28;;;2.60;79.60;;;;;;5011593;28;20038;-70
2022/04/02 04:43:34;;;;;;;3.65;2.20;;;2.60;78.80;;;;;;5012987;28;20033;-69
2022/04/02 04:46:00;;;;;;;5.47;2.15;;;2.60;78.90;;;;;;5008856;28;20398;-69
2022/04/02 04:48:25;;;;;;;7.00;3.20;;;2.60;78.40;;;;;;5012735;28;20030;-70
2022/04/02 04:50:51;;;;;;;4.90;2.10;;;2.60;78.60;;;;;;5005232;28;20014;-69
2022/04/02 04:53:16;;;;;;;6.05;2.50;;;2.70;78.30;;;;;;5011089;28;20100;-69
2022/04/02 04:55:42;;;;;;;6.20;2.30;;;2.70;78.30;;;;;;5011433;28;20034;-69
2022/04/02 04:58:07;;;;;;;6.15;2.65;;;2.70;78.30;;;;;;5012079;28;20572;-68
2022/04/02 05:00:33;;;;;;;3.78;2.20;;;2.70;78.10;;;;;;5004926;28;20027;-70
2022/04/02 05:02:59;;;;;;;4.13;2.42;;;2.70;78.50;;;;;;5012005;28;20021;-70
2022/04/02 05:05:25;;;;;;;6.35;2.35;;;2.70;78.20;;;;;;5011016;28;20088;-69
2022/04/02 05:07:52;;;;;;;6.60;2.25;;;2.70;79.00;;;;;;5012123;28;20078;-68
2022/04/02 05:10:17;;;;;;;4.30;2.50;;;2.60;79.00;;;;;;5011046;28;20034;-69
2022/04/02 05:12:43;;;;;;;5.85;2.20;;;2.60;79.10;;;;;;5010792;28;20033;-69
2022/04/02 05:15:09;;;;;;;6.70;2.40;;;2.70;79.00;;;;;;5011330;28;20038;-69
2022/04/02 05:17:36;;;;;;;5.95;2.30;;;2.70;78.90;;;;;;5009416;28;20084;-69
2022/04/02 05:20:07;;;;;;;5.20;2.78;;;2.70;78.70;;;;;;5006658;28;20027;-69
2022/04/02 05:22:33;;;;;;;6.03;2.58;;;2.70;79.20;;;;;;5008989;28;20518;-70
2022/04/02 05:24:58;;;;;;;5.20;2.72;;;2.70;79.60;;;;;;5011787;28;20087;-69
2022/04/02 05:27:28;;;;;;;7.60;3.22;;;2.70;79.20;;;;;;5010496;28;20439;-69
2022/04/02 05:29:54;;;;;;;8.20;2.55;;;2.70;79.30;;;;;;5005601;28;20029;-68
2022/04/02 05:32:19;;;;;;;8.02;3.65;;;2.70;79.10;;;;;;4999780;28;20034;-69
2022/04/02 05:34:45;;;;;;;6.78;2.67;;;2.80;79.40;;;;;;4993808;28;20018;-69
2022/04/02 05:37:11;;;;;;;5.20;2.30;;;2.70;79.30;;;;;;4997395;28;20064;-69
2022/04/02 05:39:36;;;;;;;5.68;2.17;;;2.70;79.50;;;;;;4997075;28;20034;-69
2022/04/02 05:42:05;;;;;;;6.25;2.35;;;2.70;79.30;;;;;;5010059;28;20148;-69
2022/04/02 05:44:31;;;;;;;5.75;2.38;;;2.80;79.10;;;;;;5007458;28;20041;-70
2022/04/02 05:46:56;;;;;;;6.07;2.30;;;2.80;79.40;;;;;;5004681;28;20042;-69
2022/04/02 05:49:22;;;;;;;5.22;2.20;;;2.80;79.50;;;;;;5011566;28;20763;-69
2022/04/02 05:51:48;;;;;;;4.53;2.10;;;2.80;79.30;;;;;;5002952;28;20026;-69
2022/04/02 05:54:14;;;;;;;5.88;2.60;;;2.90;79.20;;;;;;5006140;28;20111;-69
2022/04/02 05:56:40;;;;;;;4.85;2.97;;;2.80;79.10;;;;;;5010073;28;20038;-69
2022/04/02 05:59:07;;;;;;;5.22;2.83;;;2.90;79.00;;;;;;5005283;28;20037;-69
2022/04/02 06:01:34;;;;;;;5.28;3.00;;;2.90;79.10;;;;;;5010087;28;20054;-68
2022/04/02 06:03:59;;;;;;;3.50;2.28;;;2.90;79.00;;;;;;5010777;28;20049;-69
2022/04/02 06:06:25;;;;;;;9.32;4.78;;;3.00;79.00;;;;;;5005709;28;20038;-68
2022/04/02 06:08:50;;;;;;;6.15;2.30;;;3.00;79.20;;;;;;5001411;28;20052;-66
2022/04/02 06:11:16;;;;;;;6.15;3.35;;;3.00;79.30;;;;;;5004448;28;20121;-66
2022/04/02 06:13:42;;;;;;;5.53;2.45;;;3.10;79.20;;;;;;4999770;28;20030;-66
2022/04/02 06:16:08;;;;;;;6.88;3.13;;;3.10;79.30;;;;;;4997161;28;20069;-67
2022/04/02 06:18:33;;;;;;;4.70;2.53;;;3.20;78.90;;;;;;5005717;28;20058;-67
2022/04/02 06:21:03;;;;;;;7.80;2.90;;;3.30;78.60;;;;;;4996377;28;20029;-64
2022/04/02 06:23:29;;;;;;;7.53;2.67;;;3.40;78.40;;;;;;5000723;28;20561;-67
2022/04/02 06:25:54;;;;;;;4.82;2.40;;;3.40;78.50;;;;;;4996155;28;20129;-65
2022/04/02 06:28:19;;;;;;;5.82;2.60;;;3.40;78.40;;;;;;4999267;28;20092;-66
2022/04/02 06:30:46;;;;;;;7.63;2.80;;;3.50;78.40;;;;;;5004399;28;20045;-66
2022/04/02 06:33:11;;;;;;;7.55;2.58;;;3.50;78.40;;;;;;5015172;28;20037;-66
2022/04/02 06:35:37;;;;;;;6.20;2.67;;;3.50;78.40;;;;;;5015189;28;20091;-68
2022/04/02 06:38:02;;;;;;;6.28;2.65;;;3.50;78.30;;;;;;5025025;28;20117;-66
2022/04/02 06:40:28;;;;;;;6.55;3.08;;;3.60;78.30;;;;;;5014181;28;20347;-65
2022/04/02 06:42:56;;;;;;;7.20;3.10;;;3.60;78.10;;;;;;5013697;28;20604;-65
2022/04/02 06:45:21;;;;;;;5.15;2.33;;;3.70;78.10;;;;;;4995180;28;20046;-66
2022/04/02 06:47:47;;;;;;;6.07;2.63;;;3.70;78.00;;;;;;5003229;28;20026;-66
2022/04/02 06:50:14;;;;;;;5.72;2.80;;;3.70;77.80;;;;;;4995215;28;20058;-66
2022/04/02 06:52:41;;;;;;;8.15;2.58;;;3.80;78.20;;;;;;5016690;28;20034;-66
2022/04/02 06:55:08;;;;;;;4.68;2.40;;;3.80;77.90;;;;;;5002340;28;20088;-66
2022/04/02 06:57:49;;;;;;;4.15;2.22;;;3.90;77.80;;;;;;5011960;28;20034;-66
2022/04/02 07:00:16;;;;;;;6.05;2.53;;;4.00;77.70;;;;;;4995545;28;20401;-66
2022/04/02 07:02:41;;;;;;;4.90;2.60;;;4.10;77.50;;;;;;5012916;28;20033;-66
2022/04/02 07:05:07;;;;;;;3.45;1.85;;;4.20;77.10;;;;;;5013205;28;20084;-66
2022/04/02 07:07:33;;;;;;;5.55;2.60;;;4.20;77.10;;;;;;5013177;28;20053;-66
2022/04/02 07:09:58;;;;;;;3.78;2.20;;;4.20;77.00;;;;;;4996652;28;20022;-67
2022/04/02 07:12:24;;;;;;;5.85;2.10;;;4.20;76.70;;;;;;4995385;28;20076;-66
2022/04/02 07:14:50;;;;;;;5.30;2.00;;;4.30;76.60;;;;;;5009594;28;20497;-68
2022/04/02 07:17:15;;;;;;;6.85;2.78;;;4.30;76.50;;;;;;5012949;28;20026;-66
2022/04/02 07:19:41;;;;;;;7.03;2.70;;;4.40;76.20;;;;;;5013177;28;20057;-66
2022/04/02 07:22:09;;;;;;;6.60;2.53;;;4.40;75.90;;;;;;5012000;28;20385;-67
2022/04/02 07:24:37;;;;;;;4.50;1.98;;;4.40;75.80;;;;;;5010710;28;20466;-67
2022/04/02 07:27:02;;;;;;;6.57;2.10;;;4.40;75.90;;;;;;5012216;28;20741;-67
2022/04/02 07:29:31;;;;;;;6.10;1.90;;;4.50;75.90;;;;;;5004584;28;20116;-68
2022/04/02 07:31:57;;;;;;;3.58;2.05;;;4.50;75.70;;;;;;5002604;28;20041;-67
2022/04/02 07:34:22;;;;;;;5.25;2.03;;;4.50;75.80;;;;;;5011760;28;20026;-66
2022/04/02 07:37:01;;;;;;;5.90;2.65;;;4.50;75.40;;;;;;5003550;28;20386;-67
2022/04/02 07:39:34;;;;;;;3.42;2.13;;;4.50;75.50;;;;;;4995066;28;20477;-67
2022/04/02 07:42:02;;;;;;;4.40;2.25;;;4.50;75.40;;;;;;5006549;28;20096;-65
2022/04/02 07:44:41;;;;;;;6.93;3.08;;;4.50;75.30;;;;;;5012875;28;20683;-66
2022/04/02 07:47:10;;;;;;;5.50;2.20;;;4.60;75.40;;;;;;5012648;28;20049;-66
2022/04/02 07:49:40;;;;;;;3.45;1.90;;;4.70;75.30;;;;;;5003431;28;20458;-65
2022/04/02 07:52:05;;;;;;;5.20;2.08;;;4.80;74.50;;;;;;5000141;28;20037;-66
2022/04/02 07:54:39;;;;;;;5.90;2.40;;;4.80;73.80;;;;;;5004697;28;20037;-66
2022/04/02 07:57:08;;;;;;;4.63;2.15;;;4.90;74.00;;;;;;5012297;28;20030;-67
2022/04/02 07:59:44;;;;;;;2.88;1.70;;;5.00;73.40;;;;;;5009395;28;20032;-66
2022/04/02 08:05:02;;;;;;;4.30;1.88;;;5.10;70.30;;;;;;5009033;28;20045;-67
2022/04/02 08:07:32;;;;;;;3.88;1.95;;;5.00;70.40;;;;;;5011958;28;20417;-66
2022/04/02 08:09:59;;;;;;;4.45;1.80;;;5.00;70.10;;;;;;5012314;28;20030;-65
2022/04/02 08:12:25;;;;;;;5.05;1.92;;;4.90;68.80;;;;;;5011149;28;20484;-64
2022/04/02 08:14:52;;;;;;;4.22;2.13;;;5.10;68.20;;;;;;5013319;28;20137;-64
2022/04/02 08:17:19;;;;;;;7.50;2.95;;;5.10;68.50;;;;;;5012013;28;20026;-65
2022/04/02 08:19:45;;;;;;;5.38;2.67;;;5.10;68.50;;;;;;4995215;28;20027;-64
2022/04/02 08:22:11;;;;;;;2.42;1.73;;;5.20;68.50;;;;;;4993786;28;20064;-69
2022/04/02 08:24:36;;;;;;;4.43;2.10;;;5.20;66.50;;;;;;5004351;28;20042;-68
2022/04/02 08:27:12;;;;;;;3.75;1.75;;;5.10;65.80;;;;;;5007329;28;20049;-66
2022/04/02 08:30:09;;;;;;;6.03;2.78;;;5.10;65.50;;;;;;5004507;28;20098;-66
2022/04/02 08:33:04;;;;;;;4.32;2.33;;;5.10;65.20;;;;;;5001329;28;20027;-68
2022/04/02 08:35:47;;;;;;;4.75;2.30;;;5.20;64.90;;;;;;5009047;28;20045;-69
2022/04/02 08:38:37;;;;;;;4.55;2.40;;;5.20;66.20;;;;;;4993242;28;20121;-69
2022/04/02 08:41:30;;;;;;;3.30;1.92;;;5.30;64.50;;;;;;4993351;28;20022;-68
2022/04/02 08:44:30;;;;;;;3.22;1.73;;;5.20;62.40;;;;;;5008071;28;20045;-66
2022/04/02 08:47:29;;;;;;;3.45;1.80;;;5.10;62.00;;;;;;4999835;28;20042;-70
2022/04/02 08:50:10;;;;;;;3.42;1.90;;;5.10;61.20;;;;;;4997740;28;20104;-70
2022/04/02 08:52:56;;;;;;;4.68;2.13;;;5.10;61.40;;;;;;5007546;28;20038;-69
2022/04/02 08:55:34;;;;;;;5.32;2.55;;;5.10;60.60;;;;;;4994458;28;20038;-69
2022/04/02 08:58:25;;;;;;;6.10;2.17;;;5.20;60.80;;;;;;5001357;28;20061;-70
2022/04/02 09:01:03;;;;;;;9.38;2.85;;;5.20;61.10;;;;;;5008736;28;20149;-69
2022/04/02 09:04:04;;;;;;;2.88;1.60;;;5.20;60.60;;;;;;5000606;28;20054;-70
2022/04/02 09:07:01;;;;;;;6.18;2.03;;;5.30;60.40;;;;;;5008220;28;20038;-69
2022/04/02 09:09:45;;;;;;;7.38;2.55;;;5.20;60.00;;;;;;4997193;28;20046;-69
2022/04/02 09:12:44;;;;;;;4.35;2.10;;;5.20;59.00;;;;;;4994304;28;20053;-69
2022/04/02 09:15:17;;;;;;;3.88;2.10;;;5.30;60.20;;;;;;5002107;28;20080;-69
2022/04/02 09:18:28;;;;;;;5.93;2.08;;;5.30;59.50;;;;;;5009749;28;20501;-69
2022/04/02 09:21:00;;;;;;;5.57;2.35;;;5.40;59.40;;;;;;5002559;28;20028;-69
2022/04/02 09:23:45;;;;;;;7.93;2.70;;;5.50;59.40;;;;;;5006612;28;20037;-68
2022/04/02 09:26:31;;;;;;;;;;;5.60;58.70;;;;;;5005615;28;20045;-68
2022/04/02 09:29:15;;;;;;;4.13;2.28;;;5.60;58.80;;;;;;5009530;28;19909;-71
2022/04/02 09:31:57;;;;;;;7.22;2.28;;;5.50;56.30;;;;;;5009164;28;20037;-69
2022/04/02 09:34:49;;;;;;;4.55;2.20;;;5.50;57.00;;;;;;5011865;28;20037;-68
2022/04/02 09:37:33;;;;;;;4.15;2.08;;;5.50;56.90;;;;;;5008089;28;20037;-70
2022/04/02 09:40:09;;;;;;;5.25;2.38;;;5.70;56.60;;;;;;5005421;28;20037;-70
2022/04/02 09:42:41;;;;;;;5.32;2.28;;;5.80;57.00;;;;;;5010623;28;20030;-70
2022/04/02 09:45:14;;;;;;;3.22;2.13;;;5.90;55.30;;;;;;4994252;28;20062;-69
2022/04/02 09:48:00;;;;;;;5.05;2.50;;;6.00;55.40;;;;;;4994052;28;20034;-70
2022/04/02 09:50:29;;;;;;;6.25;2.08;;;6.00;55.30;;;;;;4991264;28;20038;-69
2022/04/02 09:53:13;;;;;;;3.47;2.40;;;6.10;54.70;;;;;;4995757;28;20090;-70
2022/04/02 09:55:50;;;;;;;5.57;2.15;;;6.00;55.00;;;;;;4993665;28;20027;-70
2022/04/02 09:58:27;;;;;;;4.40;2.40;;;5.90;55.60;;;;;;5008485;28;20112;-70
2022/04/02 10:01:11;;;;;;;3.30;2.25;;;6.00;55.30;;;;;;5009494;28;20029;-70
2022/04/02 10:03:47;;;;;;;3.42;2.10;;;6.10;55.10;;;;;;5009538;28;20104;-69
2022/04/02 10:06:38;;;;;;;4.20;2.33;;;6.20;55.10;;;;;;4997410;28;20041;-70
2022/04/02 10:09:14;;;;;;;5.65;2.67;;;6.30;54.80;;;;;;5007338;28;20049;-70
2022/04/02 10:11:46;;;;;;;6.82;2.20;;;6.50;55.20;;;;;;5007280;28;20034;-70
2022/04/02 10:14:22;;;;;;;4.88;2.85;;;6.60;55.30;;;;;;5010207;28;20034;-70
2022/04/02 10:16:55;;;;;;;3.72;2.28;;;6.70;54.30;;;;;;5004313;28;20033;-70
2022/04/02 10:19:29;;;;;;;6.32;2.28;;;6.80;52.90;;;;;;5014290;28;20604;-70
2022/04/02 10:21:57;;;;;;;3.95;2.22;;;6.60;52.60;;;;;;4994428;28;20054;-69
2022/04/02 10:24:25;;;;;;;6.07;2.95;;;6.60;53.70;;;;;;4999735;28;20072;-71
2022/04/02 10:26:53;;;;;;;6.13;2.38;;;6.60;53.40;;;;;;5008983;28;20040;-71
2022/04/02 10:29:54;;;;;;;3.85;2.45;;;6.60;53.10;;;;;;5010083;28;20036;-71
2022/04/02 10:32:32;;;;;;;3.30;2.20;;;6.60;53.50;;;;;;5008040;28;20122;-70
2022/04/02 10:35:07;;;;;;;4.68;2.40;;;6.70;53.90;;;;;;5000254;28;20038;-71
2022/04/02 10:37:39;;;;;;;4.07;2.20;;;6.80;53.40;;;;;;5009829;28;20105;-70
2022/04/02 10:40:11;;;;;;;4.78;2.55;;;6.80;53.40;;;;;;5012556;28;20109;-70
2022/04/02 10:42:42;;;;;;;3.92;2.50;;;6.80;53.30;;;;;;5008150;28;20088;-70
2022/04/02 10:45:10;;;;;;;3.80;2.58;;;6.80;53.60;;;;;;4997556;28;20063;-72
2022/04/02 10:47:48;;;;;;;5.47;2.70;;;6.90;53.90;;;;;;5008343;28;20030;-69
2022/04/02 10:50:17;;;;;;;5.45;2.45;;;7.00;53.40;;;;;;5003628;28;20136;-70
2022/04/02 10:52:47;;;;;;;5.88;2.63;;;7.00;53.20;;;;;;5008909;28;20033;-70
2022/04/02 10:55:17;;;;;;;3.40;2.70;;;7.20;53.80;;;;;;4997758;28;20057;-70
2022/04/02 10:57:43;;;;;;;4.28;2.42;;;7.30;53.40;;;;;;5007456;28;20046;-72
2022/04/02 11:00:10;;;;;;;4.72;2.97;;;7.30;53.20;;;;;;4991267;28;20021;-69
2022/04/02 11:02:41;;;;;;;3.60;2.25;;;7.30;53.50;;;;;;4994872;28;20026;-70
2022/04/02 11:05:14;;;;;;;3.83;2.53;;;7.40;52.30;;;;;;5007647;28;20053;-71
2022/04/02 11:07:45;;;;;;;5.25;2.92;;;7.40;52.00;;;;;;5004806;28;20046;-70
2022/04/02 11:10:13;;;;;;;5.50;2.55;;;7.50;51.20;;;;;;5012398;28;20034;-69
2022/04/02 11:12:44;;;;;;;3.60;2.30;;;7.50;50.30;;;;;;5012739;28;20117;-70
2022/04/02 11:15:17;;;;;;;3.83;1.80;;;7.40;50.60;;;;;;5013140;28;20038;-71
2022/04/02 11:17:46;;;;;;;4.75;2.33;;;7.40;50.50;;;;;;5013119;28;20079;-70
2022/04/02 11:20:20;;;;;;;3.10;2.10;;;7.40;50.90;;;;;;5013602;28;20069;-71
2022/04/02 11:22:52;;;;;;;3.83;2.30;;;7.50;50.90;;;;;;4995764;28;20034;-70
2022/04/02 11:25:28;;;;;;;6.38;2.30;;;7.60;51.10;;;;;;5007594;28;20050;-71
2022/04/02 11:28:15;;;;;;;4.68;2.15;;;7.60;50.70;;;;;;5005264;28;20037;-71
2022/04/02 11:30:46;;;;;;;4.75;2.00;;;7.70;50.70;;;;;;5008633;28;22241;-71
2022/04/02 11:33:26;;;;;;;3.13;1.70;;;7.60;50.50;;;;;;5003891;28;20034;-71
2022/04/02 11:36:11;;;;;;;3.63;1.90;;;7.70;50.80;;;;;;5012487;28;20033;-70
2022/04/02 11:38:49;;;;;;;4.97;2.25;;;7.70;51.40;;;;;;5013194;28;20045;-71
2022/04/02 11:41:30;;;;;;;3.03;1.92;;;7.70;51.80;;;;;;5009840;28;20566;-71
2022/04/02 11:44:16;;;;;;;4.38;2.15;;;7.70;52.90;;;;;;5005591;28;20022;-71
2022/04/02 11:47:02;;;;;;;4.22;2.40;;;7.60;54.10;;;;;;5002367;28;20127;-71
2022/04/02 11:49:37;;;;;;;4.30;2.03;;;7.50;54.80;;;;;;5005117;28;20026;-71
2022/04/02 11:52:05;;;;;;;3.35;2.00;;;7.50;55.30;;;;;;5010858;28;20045;-71
2022/04/02 11:54:39;;;;;;;5.43;2.30;;;7.50;55.80;;;;;;5012644;28;20088;-71
2022/04/02 11:57:12;;;;;;;5.60;1.95;;;7.50;55.90;;;;;;5011781;28;20489;-71
2022/04/02 11:59:52;;;;;;;6.13;1.90;;;7.60;56.00;;;;;;5006124;28;20062;-71
2022/04/02 12:02:34;;;;;;;3.20;1.70;;;7.60;56.00;;;;;;4996548;28;20477;-70
2022/04/02 12:05:00;;;;;;;4.28;2.13;;;7.60;55.50;;;;;;5012712;28;20060;-70
2022/04/02 12:08:03;;;;;;;3.63;2.03;;;7.70;55.30;;;;;;5011249;28;20501;-71
2022/04/02 12:10:31;;;;;;;7.32;1.83;;;7.80;55.10;;;;;;5008959;28;20056;-70
2022/04/02 12:12:58;;;;;;;6.93;1.92;;;7.70;55.30;;;;;;4993903;28;20173;-70
2022/04/02 12:15:25;;;;;;;6.13;2.25;;;7.70;56.10;;;;;;5011037;28;20032;-70
2022/04/02 12:17:53;;;;;;;3.63;2.30;;;7.60;56.90;;;;;;4995621;28;20367;-70
2022/04/02 12:20:30;;;;;;;4.50;2.17;;;7.50;59.30;;;;;;5008690;28;20041;-70
2022/04/02 12:23:14;;;;;;;5.30;2.75;;;7.30;59.10;;;;;;5005172;28;20065;-69
2022/04/02 12:25:53;;;;;;;10.82;2.67;;;7.20;59.90;;;;;;5008430;28;20373;-72
2022/04/02 12:28:19;;;;;;;4.45;2.20;;;7.10;60.30;;;;;;5018403;28;20109;-70
2022/04/02 12:30:48;;;;;;;4.20;2.45;;;6.90;60.30;;;;;;4998415;28;20042;-70
2022/04/02 12:33:24;;;;;;;5.00;2.45;;;6.90;59.90;;;;;;5010091;28;20045;-69
2022/04/02 12:35:58;;;;;;;3.47;2.30;;;6.70;59.40;;;;;;5007374;28;20373;-69
2022/04/02 12:38:32;;;;;;;5.70;2.40;;;6.80;59.10;;;;;;5008420;28;20066;-71
2022/04/02 12:41:00;;;;;;;4.35;1.98;;;6.70;58.10;;;;;;5006022;28;20630;-71
2022/04/02 12:43:28;;;;;;;4.35;1.75;;;6.80;57.90;;;;;;5009255;28;20507;-70
2022/04/02 12:45:55;;;;;;;5.97;1.98;;;6.60;57.00;;;;;;5007381;28;20111;-71
2022/04/02 12:48:21;;;;;;;3.45;1.83;;;6.60;57.20;;;;;;5006054;28;20026;-70
2022/04/02 12:50:58;;;;;;;4.13;1.80;;;6.60;56.70;;;;;;5009927;28;20034;-69
2022/04/02 12:53:36;;;;;;;4.40;1.92;;;6.60;56.70;;;;;;5005780;28;20026;-69
2022/04/02 12:56:06;;;;;;;2.83;1.80;;;6.60;56.40;;;;;;4998677;28;20414;-70
2022/04/02 12:58:35;;;;;;;2.83;1.75;;;6.60;56.60;;;;;;5006658;28;20080;-70
2022/04/02 13:01:13;;;;;;;6.40;2.33;;;6.60;56.60;;;;;;5005306;28;20084;-70
2022/04/02 13:03:59;;;;;;;6.53;2.00;;;6.50;57.10;;;;;;5009399;28;20121;-70
2022/04/02 13:06:33;;;;;;;3.95;2.10;;;6.40;58.30;;;;;;5004619;28;20556;-70
2022/04/02 13:09:20;;;;;;;4.45;1.92;;;6.40;59.20;;;;;;4996124;28;20096;-68
2022/04/02 13:11:58;;;;;;;6.15;2.92;;;6.30;60.60;;;;;;4999894;28;20591;-70
2022/04/02 13:14:25;;;;;;;4.95;2.00;;;6.30;62.00;;;;;;5009168;28;20026;-68
2022/04/02 13:17:08;;;;;;;10.30;2.75;;;6.20;61.70;;;;;;5009747;28;20473;-68
2022/04/02 13:22:44;;;;;;;6.03;1.90;;;6.20;62.20;;;;;;5008764;28;20430;-74